Cherburgo-Octeville, Francia

9:39 AM CET en Noviembre 26, 2014 (GMT +0100)
Maupertus | Change Station
CLOSE
Current Station
Aeropuerto
Location: Cherbourg,
Altura: 453 ft
Estaciones meteorológicas cercanas

Alt 453 ft 49.65 °N, 1.46 °W | Updated 9 minutes ago

Fog
Niebla
50 ° F
Sensación térmica 50 ° F
N
4
Viento Variable Viento desde Sur

Hoy
Alta -- | Baja -- ° F
--% Posibilidad de precipitaciones
Ayer
Alta -- | Baja -- ° F
Precip. -- pul
8:34 AM 5:11 PM
Creciente, 18% visible
Presión 29.86 pul
Visibilidad 0.2 Millas
Nubes Baja 100 ft
Nublado 1500 ft
Punto de rocío 50 ° F
Humedad 100%
Precipitaciones 0.00 pul
Espesor de la nieve No disponible.
UV 0 de una escala de 12
Polen No disponible.
Calidad del aire No disponible.
Flu Activity No disponible.
METAR LFRC 260830Z AUTO 17003KT 0400 R28/1300N FG FEW001 OVC015 10/10 Q1011

More Conditions Fewer Conditions

Presión 29.86 pul
Visibilidad 0.2 Millas
Nubes Baja 100 ft
Nublado 1500 ft
Punto de rocío 50 ° F
Humedad 100%
Precipitaciones 0.00 pul
Espesor de la nieve No disponible.
UV 0 de una escala de 12
Polen No disponible.
Calidad del aire No disponible.
Flu Activity No disponible.
METAR LFRC 260830Z AUTO 17003KT 0400 R28/1300N FG FEW001 OVC015 10/10 Q1011

More Conditions Fewer Conditions

10-Day Weather Forecast

Almanac

Astronomía

Nov. 26, 2014 Salida Puesta
Hora real
Crepúsculo civil
Crepúsculo náutico
Crepúsculo astronómico
Luna
Horas de luz
Horas de luz
Tomorrow will be .
, % of the Moon is Illuminated

Extremos de hoy

Máximos del país Bajas del país

Community

WunderPhotos

Upload Photos

1,773,694 ¡fotos cargadas!

WunderBlogs® & News

Nearby

Calidad del aire

  Calidad del aire Índice AQ Contaminante
Not available.

Grosos de nieve

Estación Profundido Altura

Actividad de terremotos

Ciudad Distance Mag. Tiempo y dato
Magnitud mínima muestra es 2,5.

Temperaturas de aguas costeras

Lugar Temperatura

Estaciones meteorológicas cercanas